Nearby METAR Reports

 

KSJC - San Jose, California, USA
Distance from station: NE 9mi, 14km
Updated: Fri, 23-Feb-2018 2:53am EST
Mostly cloudy
Mostly cloudy
 Wind from WNW
Wind: WNW 3 mph , 6 km/h
Temperature: 43°F , 6°C
Dew Point: 34°F , 1°C
Humidity: 71%
Barometer: 30.26 inHg , 1024.7 hPa
Clouds: Mostly cloudy
Visibility: 10 miles , 16 km
Cloud details: Few Clouds 3100 ft
Partly cloudy 3800 ft
Mostly cloudy 6000 ft
2018/02/23 07:53 KSJC 230753Z 29003KT 10SM FEW031 SCT038 BKN060 06/01 A3026 RMK AO2 SLP245 LAST T00610006 401330044
KNUQ - Moffett Nas/Mtn, California, USA
Distance from station: N 9mi, 14km
Updated: Fri, 23-Feb-2018 2:56am EST
Clear
Clear
 Wind from W
Wind: W 7 mph , 11 km/h
Temperature: 45°F , 7°C
Wind Chill: 41°F , 5°C
Dew Point: 32°F , 0°C
Humidity: 61%
Barometer: 30.26 inHg , 1024.7 hPa
Clouds: Clear
Visibility: 10 miles , 16 km
2018/02/23 07:56 KNUQ 230756Z AUTO 28006KT 10SM CLR 07/00 A3026 RMK AO2 SLP249 T00670000 401220044
 
KPAO - Palo Alto, California, USA
Distance from station: NNW 14mi, 23km
Updated: Thu, 22-Feb-2018 6:47pm EST
NOT Current
Mostly cloudy
Mostly cloudy
 Wind from WNW
Wind: WNW 23 mph , 37 km/h
Temperature: 63°F , 17°C
Dew Point: 46°F , 8°C
Humidity: 56%
Barometer: 30.19 inHg , 1022.4 hPa
Clouds: Mostly cloudy
Visibility: 10 miles , 16 km
Cloud details: Mostly cloudy 3500 ft
Mostly cloudy 5000 ft
2018/02/22 23:47 KPAO 222347Z 29020KT 10SM BKN035 BKN050 17/08 A3019
KRHV - San Jose/Reid, California, USA
Distance from station: ENE 12mi, 19km
Updated: Fri, 23-Feb-2018 12:59am EST
NOT Current
Partly cloudy
Partly cloudy
 Wind from NNW
Wind: NNW 12 mph , 19 km/h
Temperature: 46°F , 8°C
Wind Chill: 40°F , 4°C
Dew Point: 34°F , 1°C
Humidity: 62%
Barometer: 30.20 inHg , 1022.7 hPa
Clouds: Partly cloudy
Visibility: 10 miles , 16 km
Cloud details: Partly cloudy 4000 ft
Partly cloudy 7000 ft
2018/02/23 05:59 KRHV 230559Z 34010KT 10SM SCT040 SCT070 08/01 A3020
 
KOAK - Oakland, California, USA
Distance from station: NNW 31mi, 50km
Updated: Fri, 23-Feb-2018 2:53am EST
Few Clouds
Few Clouds
 Wind from NW
Wind: NW 14 mph , 22 km/h
Temperature: 45°F , 7°C
Wind Chill: 39°F , 4°C
Dew Point: 30°F , -1°C
Humidity: 57%
Barometer: 30.25 inHg , 1024.4 hPa
Clouds: Few Clouds
Visibility: 10 miles , 16 km
Cloud details: Few Clouds 2000 ft
2018/02/23 07:53 KOAK 230753Z 31012KT 10SM FEW020 07/M01 A3025 RMK AO2 SLP244 T00671011 401330044
KSQL - San Carlos Airpo, California, USA
Distance from station: NW 21mi, 34km
Updated: Fri, 23-Feb-2018 3:35am EST
Clear
Clear
 Wind from WNW
Wind: WNW 6 mph , 9 km/h
Temperature: 45°F , 7°C
Wind Chill: 42°F , 6°C
Dew Point: 27°F , -3°C
Humidity: 49%
Barometer: 30.26 inHg , 1024.7 hPa
Clouds: Clear
Visibility: 10 miles , 16 km
2018/02/23 08:35 KSQL 230835Z AUTO 29005KT 10SM CLR 07/M03 A3026 RMK AO2
 
KSFO - San Francisco, California, USA
Distance from station: NW 30mi, 49km
Updated: Fri, 23-Feb-2018 2:56am EST
Few Clouds
Few Clouds
 Wind from NW
Wind: NW 10 mph , 17 km/h
Temperature: 45°F , 7°C
Wind Chill: 40°F , 4°C
Dew Point: 28°F , -2°C
Humidity: 53%
Barometer: 30.26 inHg , 1024.7 hPa
Clouds: Few Clouds
Visibility: 10 miles , 16 km
Cloud details: Few Clouds 2500 ft
2018/02/23 07:56 KSFO 230756Z 31009KT 10SM FEW025 07/M02 A3026 RMK AO2 SLP245 T00721017 401280072
KE16 - San Martin, California, USA
Distance from station: ESE 27mi, 43km
Updated: Fri, 23-Feb-2018 3:35am EST
Light rain, Mostly cloudy
Light rain, Mostly cloudy
 Wind from NNW
Wind: NNW 6 mph , 9 km/h
Temperature: 39°F , 4°C
Wind Chill: 35°F , 2°C
Dew Point: 32°F , 0°C
Humidity: 75%
Barometer: 30.27 inHg , 1025.1 hPa
Summary: Light rain
Clouds: Mostly cloudy
Visibility: 10 miles , 16 km
Cloud details: Partly cloudy 1800 ft
Mostly cloudy 3500 ft
2018/02/23 08:35 KE16 230835Z AUTO 33005KT 10SM -RA SCT018 BKN035 04/00 A3027 RMK AO2
 
KWVI - Watsonville, California, USA
Distance from station: SSE 27mi, 44km
Updated: Fri, 23-Feb-2018 2:53am EST
Clear
Clear
 Wind from NW
Wind: NW 5 mph , 7 km/h
Temperature: 37°F , 3°C
Wind Chill: 33°F , 1°C
Dew Point: 30°F , -1°C
Humidity: 75%
Barometer: 30.26 inHg , 1024.7 hPa
Clouds: Clear
Visibility: 9 miles , 14 km
2018/02/23 07:53 KWVI 230753Z AUTO 32004KT 9SM CLR 03/M01 A3026 RMK AO2 SLP246 T00281006 401500017
KHAF - Half Moon Bay, California, USA
Distance from station: WNW 31mi, 50km
Updated: Fri, 23-Feb-2018 3:35am EST
Partly cloudy
Partly cloudy
 Wind from NNW
Wind: NNW 18 mph , 30 km/h, Gust: 33 mph , 54 km/h
Temperature: 45°F , 7°C
Wind Chill: 37°F , 3°C
Dew Point: 28°F , -2°C
Humidity: 53%
Barometer: 30.23 inHg , 1023.7 hPa
Clouds: Partly cloudy
Visibility: 10 miles , 16 km
Cloud details: Partly cloudy 3700 ft
2018/02/23 08:35 KHAF 230835Z AUTO 34016G29KT 10SM SCT037 07/M02 A3023 RMK AO2
 
KHWD - Hayward, California, USA
Distance from station: N 28mi, 44km
Updated: Fri, 23-Feb-2018 2:54am EST
Clear
Clear
 Wind from calm
Wind: Calm
Temperature: 43°F , 6°C
Dew Point: 28°F , -2°C
Humidity: 57%
Barometer: 30.25 inHg , 1024.4 hPa
Clouds: Clear
Visibility: 10 miles , 16 km
2018/02/23 07:54 KHWD 230754Z AUTO 00000KT 10SM CLR 06/M02 A3025 RMK AO2 SLP252 T00561022 401280050
KLVK - Livermore, California, USA
Distance from station: NNE 31mi, 51km
Updated: Fri, 23-Feb-2018 2:53am EST
Clear
Clear
 Wind from WSW
Wind: WSW 5 mph , 7 km/h
Temperature: 39°F , 4°C
Wind Chill: 35°F , 2°C
Dew Point: 30°F , -1°C
Humidity: 70%
Barometer: 30.23 inHg , 1023.7 hPa
Clouds: Clear
Visibility: 10 miles , 16 km
2018/02/23 07:53 KLVK 230753Z AUTO 25004KT 10SM CLR 04/M01 A3023 RMK AO2 SLP238 T00391011 401220011